Time;durP1;ratioP1;P1;durP2;ratioP2;P2;SDS_P1;SDS_P2;PMS_P1;PMS_P2;Temp;Humidity;BMP_temperature;BMP_pressure;BME280_temperature;BME280_humidity;BME280_pressure;Samples;Min_cycle;Max_cycle;Signal;HPM_P1;HPM_P2
2023/11/14 00:00:04;;;;;;;31.52;3.95;;;12.60;99.90;;;;;;5071020;28;20379;-90
2023/11/14 00:02:29;;;;;;;29.38;3.40;;;12.60;99.90;;;;;;5073674;28;20069;-92
2023/11/14 00:04:55;;;;;;;25.10;3.30;;;12.60;99.90;;;;;;5082028;28;20041;-90
2023/11/14 00:07:20;;;;;;;27.60;3.13;;;12.60;99.90;;;;;;5072686;28;20020;-90
2023/11/14 00:09:47;;;;;;;27.55;3.25;;;12.50;99.90;;;;;;5068516;28;20059;-90
2023/11/14 00:12:16;;;;;;;22.58;3.53;;;12.50;99.90;;;;;;5073205;28;20032;-92
2023/11/14 00:14:45;;;;;;;27.88;3.17;;;12.50;99.90;;;;;;5091698;28;20059;-90
2023/11/14 00:17:11;;;;;;;24.60;2.67;;;12.50;99.90;;;;;;5090559;28;20036;-89
2023/11/14 00:19:38;;;;;;;28.08;2.97;;;12.50;99.90;;;;;;5069449;28;20036;-92
2023/11/14 00:22:04;;;;;;;34.33;3.58;;;12.50;99.90;;;;;;5092906;28;20020;-89
2023/11/14 00:24:29;;;;;;;27.55;4.22;;;12.50;99.90;;;;;;5096527;28;20044;-90
2023/11/14 00:26:58;;;;;;;29.33;4.38;;;12.40;99.90;;;;;;5076320;28;20058;-92
2023/11/14 00:29:23;;;;;;;28.98;4.10;;;12.40;99.90;;;;;;5074587;28;20039;-90
2023/11/14 00:31:49;;;;;;;26.83;3.42;;;12.50;99.90;;;;;;5074829;28;20021;-91
2023/11/14 00:34:14;;;;;;;25.23;2.65;;;12.40;99.90;;;;;;5070462;28;20031;-90
2023/11/14 00:36:41;;;;;;;26.63;3.17;;;12.40;99.90;;;;;;5074373;28;20070;-90
2023/11/14 00:39:08;;;;;;;31.50;4.43;;;12.40;99.90;;;;;;5077676;28;20024;-91
2023/11/14 00:41:34;;;;;;;33.97;4.22;;;12.40;99.90;;;;;;5077806;28;20020;-90
2023/11/14 00:44:39;;;;;;;28.45;4.22;;;12.40;99.90;;;;;;5077091;28;20024;-90
2023/11/14 00:47:24;;;;;;;29.75;4.15;;;12.50;99.90;;;;;;5092723;28;20028;-90
2023/11/14 00:49:50;;;;;;;31.30;3.42;;;12.50;99.90;;;;;;5077022;28;20020;-92
2023/11/14 00:52:16;;;;;;;24.83;3.40;;;12.50;99.90;;;;;;5078189;28;20028;-90
2023/11/14 00:54:41;;;;;;;21.75;4.63;;;12.50;99.90;;;;;;5077255;28;20096;-89
2023/11/14 00:57:07;;;;;;;19.42;3.03;;;12.50;99.90;;;;;;5077004;28;20066;-89
2023/11/14 00:59:32;;;;;;;29.42;3.97;;;12.50;99.90;;;;;;5077456;28;20028;-90
2023/11/14 01:01:59;;;;;;;30.85;3.72;;;12.50;99.90;;;;;;5076370;28;20127;-91
2023/11/14 01:04:25;;;;;;;34.30;3.60;;;12.50;99.90;;;;;;5076413;28;20040;-90
2023/11/14 01:06:52;;;;;;;32.33;3.95;;;12.50;99.90;;;;;;5058525;28;20097;-90
2023/11/14 01:09:17;;;;;;;22.27;3.17;;;12.50;99.90;;;;;;5076098;28;20024;-91
2023/11/14 01:11:43;;;;;;;35.72;4.40;;;12.50;99.90;;;;;;5086453;28;20028;-91
2023/11/14 01:14:08;;;;;;;30.48;3.45;;;12.40;99.90;;;;;;5076921;28;20031;-90
2023/11/14 01:16:34;;;;;;;32.75;4.32;;;12.40;99.90;;;;;;5073501;28;20037;-91
2023/11/14 01:19:01;;;;;;;33.03;3.45;;;12.40;99.90;;;;;;5077052;28;20028;-90
2023/11/14 01:21:28;;;;;;;29.25;2.97;;;12.40;99.90;;;;;;5077051;28;20399;-92
2023/11/14 01:23:54;;;;;;;37.92;3.92;;;12.40;99.90;;;;;;5094014;28;20024;-92
2023/11/14 01:26:20;;;;;;;27.85;4.70;;;12.40;99.90;;;;;;5074633;28;20081;-92
2023/11/14 01:28:46;;;;;;;41.55;5.28;;;12.40;99.90;;;;;;5073329;28;20024;-90
2023/11/14 01:31:22;;;;;;;38.90;4.03;;;12.30;99.90;;;;;;5071605;28;20488;-91
2023/11/14 01:33:47;;;;;;;25.23;2.83;;;12.40;99.90;;;;;;5076336;28;20416;-90
2023/11/14 01:36:13;;;;;;;32.92;4.30;;;12.30;99.90;;;;;;5088648;28;20024;-92
2023/11/14 01:38:38;;;;;;;35.80;4.05;;;12.30;99.90;;;;;;5075756;28;20039;-91
2023/11/14 01:41:04;;;;;;;34.72;4.30;;;12.20;99.90;;;;;;5076083;28;20020;-91
2023/11/14 01:43:29;;;;;;;30.08;2.78;;;12.20;99.90;;;;;;5064841;28;20100;-90
2023/11/14 01:45:55;;;;;;;34.55;3.65;;;12.20;99.90;;;;;;5075587;28;20127;-91
2023/11/14 01:48:21;;;;;;;44.03;5.03;;;12.20;99.90;;;;;;5074394;28;20051;-90
2023/11/14 01:50:47;;;;;;;44.08;5.05;;;12.10;99.90;;;;;;5071995;28;20055;-91
2023/11/14 01:53:13;;;;;;;32.25;3.60;;;12.10;99.90;;;;;;5075391;28;20027;-93
2023/11/14 01:55:40;;;;;;;30.10;3.92;;;12.10;99.90;;;;;;5092345;28;20028;-91
2023/11/14 01:58:06;;;;;;;42.15;3.75;;;12.10;99.90;;;;;;5076057;28;20016;-90
2023/11/14 02:00:32;;;;;;;33.10;3.80;;;12.10;99.90;;;;;;5072398;28;20024;-91
2023/11/14 02:02:59;;;;;;;29.83;3.28;;;12.10;99.90;;;;;;5073193;28;20048;-91
2023/11/14 02:05:26;;;;;;;31.08;3.72;;;12.20;99.90;;;;;;5072069;28;20489;-90
2023/11/14 02:07:52;;;;;;;35.90;3.83;;;12.10;99.90;;;;;;5069175;28;20029;-91
2023/11/14 02:10:18;;;;;;;29.33;3.67;;;12.10;99.90;;;;;;5069949;28;20025;-93
2023/11/14 02:12:44;;;;;;;35.17;4.00;;;12.20;99.90;;;;;;5060551;28;20051;-91
2023/11/14 02:15:11;;;;;;;37.47;4.60;;;12.20;99.90;;;;;;5069462;28;20036;-92
2023/11/14 02:17:38;;;;;;;36.40;4.53;;;12.20;99.90;;;;;;5052904;28;20064;-91
2023/11/14 02:20:04;;;;;;;30.42;3.95;;;12.20;99.90;;;;;;5067661;28;20028;-92
2023/11/14 02:22:29;;;;;;;32.97;3.47;;;12.20;99.90;;;;;;5059179;28;20031;-90
2023/11/14 02:24:55;;;;;;;32.92;3.72;;;12.20;99.90;;;;;;5081563;28;20104;-91
2023/11/14 02:27:22;;;;;;;25.35;3.38;;;12.20;99.90;;;;;;5077300;28;20411;-90
2023/11/14 02:29:50;;;;;;;32.20;3.55;;;12.20;99.90;;;;;;5072369;28;20082;-91
2023/11/14 02:32:16;;;;;;;29.88;3.97;;;12.20;99.90;;;;;;5071292;28;20028;-91
2023/11/14 02:34:42;;;;;;;33.92;3.65;;;12.30;99.90;;;;;;5072517;28;20033;-90
2023/11/14 02:37:08;;;;;;;33.60;4.15;;;12.20;99.90;;;;;;5070984;28;20042;-91
2023/11/14 02:39:34;;;;;;;36.65;5.18;;;12.30;99.90;;;;;;5070998;28;20025;-92
2023/11/14 02:42:00;;;;;;;29.67;3.13;;;12.30;99.90;;;;;;5068761;28;20024;-91
2023/11/14 02:44:27;;;;;;;33.83;4.70;;;12.30;99.90;;;;;;5068759;28;20033;-90
2023/11/14 02:46:53;;;;;;;34.97;3.45;;;12.30;99.90;;;;;;5067622;28;20028;-92
2023/11/14 02:49:21;;;;;;;29.45;4.32;;;12.30;99.90;;;;;;5068745;28;20500;-90
2023/11/14 02:51:47;;;;;;;35.83;3.60;;;12.40;99.90;;;;;;5085895;28;20035;-91
2023/11/14 02:54:12;;;;;;;33.15;4.25;;;12.40;99.90;;;;;;5071921;28;20116;-91
2023/11/14 02:56:38;;;;;;;26.63;2.72;;;12.40;99.90;;;;;;5072253;28;20058;-91
2023/11/14 02:59:04;;;;;;;41.78;5.43;;;12.40;99.90;;;;;;5072102;28;20556;-90
2023/11/14 03:01:30;;;;;;;28.30;3.42;;;12.50;99.90;;;;;;5070959;28;20040;-90
2023/11/14 03:03:55;;;;;;;27.95;3.42;;;12.40;99.90;;;;;;5093719;28;20115;-91
2023/11/14 03:06:21;;;;;;;37.00;4.07;;;12.50;99.90;;;;;;5072244;28;20073;-91
2023/11/14 03:08:46;;;;;;;31.27;3.63;;;12.40;99.90;;;;;;5074609;28;20487;-91
2023/11/14 03:11:12;;;;;;;41.45;4.25;;;12.50;99.90;;;;;;5072666;28;20024;-91
2023/11/14 03:13:38;;;;;;;37.97;4.40;;;12.50;99.90;;;;;;5071418;28;20016;-91
2023/11/14 03:16:04;;;;;;;31.80;3.10;;;12.50;99.90;;;;;;5071579;28;20017;-93
2023/11/14 03:18:29;;;;;;;27.27;3.40;;;12.60;99.90;;;;;;5071198;28;20473;-91
2023/11/14 03:20:55;;;;;;;32.63;4.07;;;12.50;99.90;;;;;;5070513;28;20111;-91
2023/11/14 03:23:20;;;;;;;30.08;3.63;;;12.60;99.90;;;;;;5081810;28;20028;-92
2023/11/14 03:25:46;;;;;;;30.17;3.58;;;12.60;99.90;;;;;;5074152;28;20085;-90
2023/11/14 03:28:11;;;;;;;35.53;4.00;;;12.60;99.90;;;;;;5071858;28;20027;-91
2023/11/14 03:30:37;;;;;;;31.30;3.55;;;12.60;99.90;;;;;;5066828;28;20027;-91
2023/11/14 03:33:03;;;;;;;31.75;4.07;;;12.60;99.90;;;;;;5075377;28;20027;-90
2023/11/14 03:35:28;;;;;;;36.92;4.30;;;12.60;99.90;;;;;;5085797;28;20391;-91
2023/11/14 03:37:55;;;;;;;36.10;3.42;;;12.60;99.90;;;;;;5071592;28;20027;-91
2023/11/14 03:40:21;;;;;;;31.13;3.67;;;12.60;99.90;;;;;;5073581;28;20024;-92
2023/11/14 03:42:46;;;;;;;26.92;3.05;;;12.60;99.90;;;;;;5074047;28;20017;-91
2023/11/14 03:45:12;;;;;;;30.73;3.65;;;12.60;99.90;;;;;;5062972;28;20047;-90
2023/11/14 03:47:37;;;;;;;32.70;3.55;;;12.60;99.90;;;;;;5074604;28;20028;-92
2023/11/14 03:50:07;;;;;;;28.15;3.78;;;12.60;99.90;;;;;;5070847;28;20067;-90
2023/11/14 03:52:33;;;;;;;31.55;4.28;;;12.70;99.90;;;;;;5071065;28;20081;-90
2023/11/14 03:54:58;;;;;;;33.00;4.15;;;12.70;99.90;;;;;;5062871;28;20057;-91
2023/11/14 03:57:24;;;;;;;42.42;4.28;;;12.70;99.90;;;;;;5081242;28;20032;-91
2023/11/14 03:59:49;;;;;;;22.80;2.72;;;12.70;99.90;;;;;;5069829;28;20051;-92
2023/11/14 04:02:15;;;;;;;29.35;3.58;;;12.60;99.90;;;;;;5062053;28;20052;-91
2023/11/14 04:04:41;;;;;;;24.20;3.30;;;12.60;99.90;;;;;;5089106;28;20063;-92
2023/11/14 04:07:06;;;;;;;24.13;3.38;;;12.60;99.90;;;;;;5072932;28;20123;-92
2023/11/14 04:09:32;;;;;;;39.65;5.28;;;12.60;99.90;;;;;;5073444;28;20032;-93
2023/11/14 04:11:57;;;;;;;26.25;3.38;;;12.60;99.90;;;;;;5089068;28;20038;-92
2023/11/14 04:14:24;;;;;;;24.98;3.67;;;12.60;99.90;;;;;;5068714;28;20116;-91
2023/11/14 04:16:50;;;;;;;27.27;3.20;;;12.50;99.90;;;;;;5067224;28;20055;-91
2023/11/14 04:19:15;;;;;;;30.48;3.78;;;12.50;99.90;;;;;;5084883;28;20046;-92
2023/11/14 04:21:41;;;;;;;30.88;3.25;;;12.50;99.90;;;;;;5073552;28;20027;-91
2023/11/14 04:24:07;;;;;;;33.78;3.65;;;12.60;99.90;;;;;;5073164;28;20105;-91
2023/11/14 04:26:33;;;;;;;28.25;2.92;;;12.60;99.90;;;;;;5074180;28;20028;-91
2023/11/14 04:28:58;;;;;;;25.13;3.08;;;12.60;99.90;;;;;;5085199;28;20020;-91
2023/11/14 04:31:24;;;;;;;30.55;3.63;;;12.70;99.90;;;;;;5072876;28;20116;-92
2023/11/14 04:33:49;;;;;;;31.02;3.65;;;12.70;99.90;;;;;;5073088;28;20153;-92
2023/11/14 04:36:15;;;;;;;35.38;4.22;;;12.70;99.90;;;;;;5074172;28;20024;-91
2023/11/14 04:38:40;;;;;;;35.55;5.07;;;12.70;99.90;;;;;;5089779;28;20028;-92
2023/11/14 04:41:06;;;;;;;31.52;4.55;;;12.70;99.90;;;;;;5073043;28;20491;-92
2023/11/14 04:43:32;;;;;;;34.50;3.65;;;12.70;99.90;;;;;;5072781;28;20028;-91
2023/11/14 04:45:58;;;;;;;40.03;4.30;;;12.70;99.90;;;;;;5061256;28;20127;-94
2023/11/14 04:48:23;;;;;;;35.88;4.80;;;12.70;99.90;;;;;;5072053;28;20110;-92
2023/11/14 04:50:49;;;;;;;37.42;4.15;;;12.80;99.90;;;;;;5072651;28;20020;-92
2023/11/14 04:53:14;;;;;;;41.90;3.75;;;12.80;99.90;;;;;;5074360;28;20024;-92
2023/11/14 04:55:40;;;;;;;33.88;4.40;;;12.80;99.90;;;;;;5081080;28;20078;-92
2023/11/14 04:58:08;;;;;;;32.80;3.70;;;12.70;99.90;;;;;;5091744;28;20442;-92
2023/11/14 05:00:34;;;;;;;32.22;4.53;;;12.70;99.90;;;;;;5087598;28;20404;-92
2023/11/14 05:03:04;;;;;;;29.83;4.28;;;12.70;99.90;;;;;;5101241;28;20040;-91
2023/11/14 05:05:34;;;;;;;34.00;4.07;;;12.70;99.90;;;;;;5082060;28;20168;-92
2023/11/14 05:07:59;;;;;;;29.73;3.42;;;12.70;99.90;;;;;;5080826;28;20035;-92
2023/11/14 05:10:25;;;;;;;34.28;3.60;;;12.70;99.90;;;;;;5076577;28;20027;-92
2023/11/14 05:12:51;;;;;;;40.55;4.50;;;12.70;99.90;;;;;;5077412;28;20035;-91
2023/11/14 05:15:16;;;;;;;40.30;5.45;;;12.70;99.90;;;;;;5076219;28;20020;-91
2023/11/14 05:17:42;;;;;;;32.65;3.60;;;12.70;99.90;;;;;;5074125;28;20020;-92
2023/11/14 05:20:08;;;;;;;32.50;4.97;;;12.70;99.90;;;;;;5075182;28;20036;-92
2023/11/14 05:22:34;;;;;;;30.20;3.70;;;12.80;99.90;;;;;;5068398;28;20488;-93
2023/11/14 05:24:59;;;;;;;32.03;4.82;;;12.70;99.90;;;;;;5087711;28;20115;-92
2023/11/14 05:27:25;;;;;;;33.60;3.75;;;12.70;99.90;;;;;;5076983;28;20030;-91
2023/11/14 05:29:50;;;;;;;32.20;4.47;;;12.80;99.90;;;;;;5076313;28;20110;-93
2023/11/14 05:32:16;;;;;;;32.13;4.68;;;12.70;99.90;;;;;;5072836;28;20123;-93
2023/11/14 05:34:43;;;;;;;30.63;3.88;;;12.80;99.90;;;;;;5077153;28;20513;-91
2023/11/14 05:37:08;;;;;;;30.90;3.20;;;12.80;99.90;;;;;;5066228;28;20040;-93
2023/11/14 05:39:34;;;;;;;35.17;4.20;;;12.80;99.90;;;;;;5071499;28;20099;-92
2023/11/14 05:41:59;;;;;;;35.35;3.58;;;12.80;99.90;;;;;;5064588;28;20480;-92
2023/11/14 05:44:25;;;;;;;31.20;4.07;;;12.80;99.90;;;;;;5072098;28;20220;-92
2023/11/14 05:46:51;;;;;;;31.08;3.80;;;12.80;99.90;;;;;;5073920;28;20020;-92
2023/11/14 05:49:16;;;;;;;25.90;3.00;;;12.70;99.90;;;;;;5076002;28;20028;-91
2023/11/14 05:51:42;;;;;;;30.23;4.13;;;12.80;99.90;;;;;;5071011;28;20027;-93
2023/11/14 05:54:08;;;;;;;25.88;3.30;;;12.80;99.90;;;;;;5066017;28;20028;-92
2023/11/14 05:56:33;;;;;;;30.02;2.78;;;12.80;99.90;;;;;;5082915;28;20107;-93
2023/11/14 05:58:59;;;;;;;29.13;3.47;;;12.80;99.90;;;;;;5072839;28;20030;-91
2023/11/14 06:01:24;;;;;;;29.48;3.80;;;12.80;99.90;;;;;;5067784;28;20090;-91
2023/11/14 06:03:50;;;;;;;28.83;3.25;;;12.80;99.90;;;;;;5092154;28;20047;-92
2023/11/14 06:06:16;;;;;;;27.27;3.00;;;12.80;99.90;;;;;;5072796;28;20475;-93
2023/11/14 06:08:42;;;;;;;35.90;4.20;;;12.80;99.90;;;;;;5086367;28;20055;-92
2023/11/14 06:11:09;;;;;;;32.97;3.60;;;12.70;99.90;;;;;;5076622;28;20051;-92
2023/11/14 06:13:35;;;;;;;35.22;3.08;;;12.70;99.90;;;;;;5091980;28;20395;-93
2023/11/14 06:16:00;;;;;;;26.85;3.53;;;12.70;99.90;;;;;;5094543;28;20106;-92
2023/11/14 06:18:30;;;;;;;25.80;4.30;;;12.70;99.90;;;;;;5075290;28;20067;-94
2023/11/14 06:21:01;;;;;;;30.67;3.70;;;12.70;99.90;;;;;;5058565;28;20055;-93
2023/11/14 06:23:27;;;;;;;30.83;4.17;;;12.70;99.90;;;;;;5076855;28;20032;-92
2023/11/14 06:25:53;;;;;;;30.02;3.90;;;12.70;99.90;;;;;;5065635;28;20037;-92
2023/11/14 06:28:19;;;;;;;32.25;4.60;;;12.60;99.90;;;;;;5079942;28;20017;-92
2023/11/14 06:30:45;;;;;;;40.75;6.20;;;12.60;99.90;;;;;;5071202;28;20031;-92
2023/11/14 06:33:10;;;;;;;31.50;4.57;;;12.60;99.90;;;;;;5075583;28;20028;-92
2023/11/14 06:35:36;;;;;;;39.33;4.70;;;12.70;99.90;;;;;;5075137;28;20028;-94
2023/11/14 06:38:03;;;;;;;23.40;3.35;;;12.60;99.90;;;;;;5091929;28;20016;-91
2023/11/14 06:40:29;;;;;;;30.58;3.20;;;12.60;99.90;;;;;;5072732;28;20051;-91
2023/11/14 06:42:54;;;;;;;26.42;3.35;;;12.60;99.90;;;;;;5087133;28;20120;-92
2023/11/14 06:45:20;;;;;;;28.75;3.40;;;12.60;99.90;;;;;;5075531;28;20043;-92
2023/11/14 06:47:46;;;;;;;39.33;4.28;;;12.60;99.90;;;;;;5075684;28;20081;-90
2023/11/14 06:50:11;;;;;;;34.65;3.80;;;12.60;99.90;;;;;;5066902;28;20028;-91
2023/11/14 06:52:37;;;;;;;34.60;4.90;;;12.60;99.90;;;;;;5075988;28;20052;-90
2023/11/14 06:55:03;;;;;;;30.33;4.28;;;12.60;99.90;;;;;;5072319;28;20055;-91
2023/11/14 06:57:31;;;;;;;26.83;2.95;;;12.60;99.90;;;;;;5075909;28;20027;-90
2023/11/14 06:59:57;;;;;;;27.75;3.55;;;12.60;99.90;;;;;;5070638;28;20020;-90
2023/11/14 07:02:23;;;;;;;37.45;4.15;;;12.60;99.90;;;;;;5066052;28;20041;-91
2023/11/14 07:04:48;;;;;;;33.22;5.15;;;12.50;99.90;;;;;;5069730;28;20074;-90
2023/11/14 07:07:15;;;;;;;33.13;4.25;;;12.50;99.90;;;;;;5065905;28;20353;-91
2023/11/14 07:09:41;;;;;;;28.63;3.42;;;12.50;99.90;;;;;;5063168;28;20481;-89
2023/11/14 07:12:07;;;;;;;26.88;2.83;;;12.40;99.90;;;;;;5071588;28;20035;-91
2023/11/14 07:14:32;;;;;;;33.65;3.63;;;12.40;99.90;;;;;;5071280;28;20515;-90
2023/11/14 07:16:58;;;;;;;28.45;4.15;;;12.30;99.90;;;;;;5061112;28;20106;-91
2023/11/14 07:19:23;;;;;;;23.63;3.72;;;12.20;99.90;;;;;;5070427;28;20029;-91
2023/11/14 07:21:49;;;;;;;31.48;3.83;;;12.20;99.90;;;;;;5060873;28;20045;-91
2023/11/14 07:24:14;;;;;;;33.75;3.55;;;12.20;99.90;;;;;;5059352;28;20024;-90
2023/11/14 07:26:43;;;;;;;28.02;3.17;;;12.20;99.90;;;;;;5056126;28;20064;-89
2023/11/14 07:29:10;;;;;;;32.03;2.97;;;12.20;99.90;;;;;;5058271;28;20048;-93
2023/11/14 07:31:36;;;;;;;29.10;3.55;;;12.20;99.90;;;;;;5065927;28;20492;-91
2023/11/14 07:34:02;;;;;;;29.67;2.83;;;12.20;99.90;;;;;;5063525;28;20029;-91
2023/11/14 07:36:27;;;;;;;28.50;3.67;;;12.20;99.90;;;;;;5053111;28;20040;-88
2023/11/14 07:38:53;;;;;;;27.38;3.85;;;12.10;99.90;;;;;;5072152;28;20028;-89
2023/11/14 07:41:20;;;;;;;23.88;3.20;;;12.00;99.90;;;;;;5071894;28;20119;-89
2023/11/14 07:43:45;;;;;;;30.73;3.75;;;11.90;99.90;;;;;;5053686;28;20039;-90
2023/11/14 07:46:11;;;;;;;32.85;3.60;;;11.90;99.90;;;;;;5084554;28;20040;-88
2023/11/14 07:48:38;;;;;;;27.35;3.05;;;11.90;99.90;;;;;;5067975;28;20120;-89
2023/11/14 07:51:04;;;;;;;35.92;4.55;;;11.80;99.90;;;;;;5070841;28;20028;-88
2023/11/14 07:53:29;;;;;;;23.52;2.63;;;11.80;99.90;;;;;;5070602;28;20024;-91
2023/11/14 07:55:55;;;;;;;23.27;3.40;;;11.80;99.90;;;;;;5070141;28;20039;-92
2023/11/14 07:58:23;;;;;;;34.90;4.28;;;11.80;99.90;;;;;;5067581;28;20021;-91
2023/11/14 08:00:49;;;;;;;30.05;4.32;;;11.80;99.90;;;;;;5068660;28;20043;-90
2023/11/14 08:03:15;;;;;;;31.02;3.95;;;11.70;99.90;;;;;;5061859;28;20041;-90
2023/11/14 08:05:40;;;;;;;32.85;3.50;;;11.70;99.90;;;;;;5061448;28;20095;-90
2023/11/14 08:08:10;;;;;;;28.05;3.13;;;11.70;99.90;;;;;;5070650;28;20492;-89
2023/11/14 08:10:39;;;;;;;27.98;3.05;;;11.70;99.90;;;;;;5065401;28;20034;-90
2023/11/14 08:13:05;;;;;;;24.92;2.97;;;11.70;99.90;;;;;;5053085;28;20113;-90
2023/11/14 08:15:31;;;;;;;41.47;5.30;;;11.60;99.90;;;;;;5055381;28;20373;-90
2023/11/14 08:17:56;;;;;;;33.75;3.97;;;11.70;99.90;;;;;;5060917;28;20112;-89
2023/11/14 08:20:22;;;;;;;31.33;3.40;;;11.70;99.90;;;;;;5064472;28;20033;-90
2023/11/14 08:22:51;;;;;;;26.55;3.22;;;11.70;99.90;;;;;;5066855;28;20021;-90
2023/11/14 08:25:20;;;;;;;29.58;4.60;;;11.70;99.90;;;;;;5070318;28;20040;-90
2023/11/14 08:27:49;;;;;;;28.60;4.05;;;11.80;99.90;;;;;;5082990;28;20119;-89
2023/11/14 08:30:15;;;;;;;26.67;3.78;;;11.80;99.90;;;;;;5070743;28;20021;-90
2023/11/14 08:32:41;;;;;;;32.63;5.28;;;11.80;99.90;;;;;;5069544;28;20377;-89
2023/11/14 08:35:07;;;;;;;27.85;4.40;;;11.80;99.90;;;;;;5070707;28;20089;-89
2023/11/14 08:37:33;;;;;;;23.55;3.55;;;11.80;99.90;;;;;;5071133;28;20048;-89
2023/11/14 08:39:58;;;;;;;26.27;3.05;;;11.80;99.90;;;;;;5066992;28;20033;-90
2023/11/14 08:42:24;;;;;;;35.45;4.10;;;11.80;99.90;;;;;;5071471;28;20066;-89
2023/11/14 08:44:50;;;;;;;25.50;3.60;;;11.80;99.90;;;;;;5071413;28;20033;-90
2023/11/14 08:47:15;;;;;;;29.08;3.55;;;11.80;99.90;;;;;;5074820;28;20112;-90
2023/11/14 08:49:41;;;;;;;27.48;3.30;;;11.80;99.90;;;;;;5073545;28;20028;-90
2023/11/14 08:52:06;;;;;;;27.13;3.70;;;11.90;99.90;;;;;;5074658;28;20423;-90
2023/11/14 08:54:32;;;;;;;38.30;4.53;;;11.90;99.90;;;;;;5073701;28;20073;-89
2023/11/14 08:56:58;;;;;;;25.95;3.20;;;11.90;99.90;;;;;;5069464;28;20116;-92
2023/11/14 08:59:24;;;;;;;32.20;3.95;;;11.90;99.90;;;;;;5071118;28;20029;-90
2023/11/14 09:01:49;;;;;;;31.05;4.28;;;12.00;99.90;;;;;;5071143;28;20036;-89
2023/11/14 09:04:15;;;;;;;31.40;3.92;;;12.00;99.90;;;;;;5053649;28;20025;-90
2023/11/14 09:06:40;;;;;;;24.58;3.90;;;12.00;99.90;;;;;;5051129;28;20028;-90
2023/11/14 09:09:07;;;;;;;35.53;4.88;;;12.10;99.90;;;;;;5054006;28;20075;-91
2023/11/14 09:11:33;;;;;;;25.85;3.38;;;12.20;99.90;;;;;;5054561;28;20025;-91
2023/11/14 09:13:59;;;;;;;28.08;4.22;;;12.20;99.90;;;;;;5054197;28;20358;-90
2023/11/14 09:16:25;;;;;;;23.67;3.47;;;12.30;99.90;;;;;;5052110;28;20029;-90
2023/11/14 09:18:52;;;;;;;23.83;3.70;;;12.30;99.90;;;;;;5053963;28;20028;-91
2023/11/14 09:21:19;;;;;;;30.60;3.33;;;12.40;99.90;;;;;;5036003;28;20553;-91
2023/11/14 09:23:44;;;;;;;29.83;3.25;;;12.40;99.90;;;;;;5054179;28;20060;-91
2023/11/14 09:26:10;;;;;;;31.27;3.78;;;12.50;99.90;;;;;;5053611;28;20040;-92
2023/11/14 09:28:36;;;;;;;28.48;4.55;;;12.50;99.90;;;;;;5053880;28;20029;-92
2023/11/14 09:31:02;;;;;;;29.15;3.72;;;12.50;99.90;;;;;;5053821;28;20029;-93
2023/11/14 09:33:29;;;;;;;27.10;3.25;;;12.50;99.90;;;;;;5065560;28;20029;-93
2023/11/14 09:35:54;;;;;;;32.65;3.85;;;12.60;99.90;;;;;;5051635;28;20082;-93
2023/11/14 09:38:22;;;;;;;27.23;3.45;;;12.60;99.90;;;;;;5053810;28;20021;-92
2023/11/14 09:40:48;;;;;;;32.30;3.85;;;12.60;99.90;;;;;;5053646;28;20024;-92
2023/11/14 09:43:13;;;;;;;34.70;3.83;;;12.70;99.90;;;;;;5051057;28;20033;-90
2023/11/14 09:45:43;;;;;;;29.45;4.10;;;12.80;99.90;;;;;;5052907;28;20082;-92
2023/11/14 09:48:10;;;;;;;26.70;3.05;;;12.90;99.90;;;;;;5036656;28;20461;-92
2023/11/14 09:50:42;;;;;;;33.53;4.25;;;13.00;99.90;;;;;;5053684;28;20025;-91
2023/11/14 09:53:08;;;;;;;33.55;4.57;;;12.90;99.90;;;;;;5053537;28;20431;-91
2023/11/14 09:55:34;;;;;;;29.88;3.30;;;13.00;99.90;;;;;;5037585;28;20117;-90
2023/11/14 09:58:05;;;;;;;29.38;4.88;;;12.90;99.90;;;;;;5047249;28;20485;-92
2023/11/14 10:00:34;;;;;;;36.47;4.07;;;12.90;99.90;;;;;;5053487;28;20480;-90
2023/11/14 10:03:02;;;;;;;30.35;3.78;;;12.90;99.90;;;;;;5049448;28;20045;-91
2023/11/14 10:05:31;;;;;;;34.42;4.20;;;12.90;99.90;;;;;;5044185;28;20060;-91
2023/11/14 10:07:57;;;;;;;31.20;3.92;;;13.00;99.90;;;;;;5054068;28;20021;-90
2023/11/14 10:10:23;;;;;;;34.28;3.55;;;13.00;99.90;;;;;;5047986;28;20036;-91
2023/11/14 10:12:50;;;;;;;24.70;3.13;;;13.20;99.90;;;;;;5053728;28;20029;-90
2023/11/14 10:15:28;;;;;;;24.92;3.00;;;13.30;99.90;;;;;;5071282;28;20033;-92
2023/11/14 10:17:54;;;;;;;26.27;3.40;;;13.30;99.90;;;;;;5053040;28;20465;-92
2023/11/14 10:20:19;;;;;;;33.63;3.50;;;13.30;99.90;;;;;;5053381;28;20032;-89
2023/11/14 10:22:52;;;;;;;33.30;3.97;;;13.30;99.90;;;;;;5053173;28;20044;-89
2023/11/14 10:25:28;;;;;;;29.70;4.28;;;13.40;99.90;;;;;;5054146;28;20037;-90
2023/11/14 10:27:59;;;;;;;34.30;4.40;;;13.40;99.90;;;;;;5050118;28;20017;-91
2023/11/14 10:30:42;;;;;;;26.88;4.05;;;13.50;99.90;;;;;;5052943;28;20493;-91
2023/11/14 10:33:09;;;;;;;32.30;4.13;;;13.50;99.90;;;;;;5048333;28;20132;-90
2023/11/14 10:35:36;;;;;;;26.63;3.67;;;13.60;99.90;;;;;;5052761;28;20021;-90
2023/11/14 10:38:24;;;;;;;21.67;3.83;;;13.60;99.90;;;;;;5052076;28;20033;-91
2023/11/14 10:40:52;;;;;;;23.05;3.03;;;13.70;99.90;;;;;;5048120;28;20108;-90
2023/11/14 10:43:26;;;;;;;26.08;3.85;;;13.60;99.90;;;;;;5066941;28;20028;-92
2023/11/14 10:45:53;;;;;;;32.33;3.97;;;13.60;99.90;;;;;;5053277;28;20097;-92
2023/11/14 10:48:22;;;;;;;27.55;3.20;;;13.60;99.90;;;;;;5052316;28;20116;-91
2023/11/14 10:50:49;;;;;;;25.83;4.72;;;13.50;99.90;;;;;;5054247;28;20040;-92
2023/11/14 10:53:16;;;;;;;35.05;4.70;;;13.60;99.90;;;;;;5052871;28;20009;-92
2023/11/14 10:55:43;;;;;;;23.30;4.45;;;13.50;99.90;;;;;;5046433;28;20082;-92
2023/11/14 10:58:11;;;;;;;24.05;2.80;;;13.60;99.90;;;;;;5049321;28;20031;-90
2023/11/14 11:00:37;;;;;;;25.63;3.70;;;13.70;99.90;;;;;;5049540;28;20052;-92
2023/11/14 11:03:05;;;;;;;27.05;3.80;;;13.70;99.90;;;;;;5066188;28;20040;-92
2023/11/14 11:05:32;;;;;;;28.90;4.32;;;13.70;99.90;;;;;;5068265;28;20048;-91
2023/11/14 11:08:02;;;;;;;19.90;3.45;;;13.80;99.90;;;;;;5069404;28;20074;-92
2023/11/14 11:10:32;;;;;;;21.98;3.72;;;13.80;99.90;;;;;;5064388;28;20028;-92
2023/11/14 11:13:07;;;;;;;24.88;3.53;;;14.00;99.90;;;;;;5068715;28;20384;-91
2023/11/14 11:15:49;;;;;;;18.88;2.85;;;14.00;99.90;;;;;;5083062;28;20068;-90
2023/11/14 11:18:22;;;;;;;16.10;2.17;;;14.10;99.90;;;;;;5071335;28;20031;-91
2023/11/14 11:20:48;;;;;;;18.92;2.85;;;14.10;99.90;;;;;;5072154;28;20025;-91
2023/11/14 11:23:14;;;;;;;20.60;3.38;;;14.20;99.90;;;;;;5064457;28;20094;-92
2023/11/14 11:25:44;;;;;;;21.02;3.22;;;14.30;99.90;;;;;;5070871;28;20043;-92
2023/11/14 11:28:21;;;;;;;18.50;2.53;;;14.30;99.90;;;;;;5070703;28;20499;-91
2023/11/14 11:31:06;;;;;;;17.83;2.70;;;14.30;99.90;;;;;;5071544;28;20035;-90
2023/11/14 11:33:36;;;;;;;25.52;3.72;;;14.30;99.90;;;;;;5066925;28;20543;-92
2023/11/14 11:36:20;;;;;;;20.38;2.72;;;14.20;99.90;;;;;;5071384;28;20032;-91
2023/11/14 11:39:07;;;;;;;19.83;2.45;;;14.20;99.90;;;;;;5075100;28;20036;-93
2023/11/14 11:41:34;;;;;;;17.10;2.60;;;14.20;99.90;;;;;;5063861;28;20034;-90
2023/11/14 11:44:03;;;;;;;18.30;3.40;;;14.10;99.90;;;;;;5071968;28;20029;-89
2023/11/14 11:46:38;;;;;;;17.73;2.20;;;14.10;99.90;;;;;;5070987;28;20048;-92
2023/11/14 11:49:19;;;;;;;24.73;2.88;;;14.20;99.90;;;;;;5067125;28;20060;-91
2023/11/14 11:51:48;;;;;;;20.35;3.17;;;14.20;99.90;;;;;;5078343;28;20403;-92
2023/11/14 11:54:26;;;;;;;21.55;2.83;;;14.20;99.90;;;;;;5052312;28;20108;-92
2023/11/14 11:57:07;;;;;;;26.55;3.70;;;14.20;99.90;;;;;;5066090;28;20024;-92
2023/11/14 11:59:46;;;;;;;25.42;3.85;;;14.10;99.90;;;;;;5078920;28;20078;-93
2023/11/14 12:02:13;;;;;;;19.55;2.92;;;14.10;99.90;;;;;;5061777;28;20083;-93
2023/11/14 12:04:39;;;;;;;24.42;3.65;;;14.00;99.90;;;;;;5051081;28;20031;-92
2023/11/14 12:07:05;;;;;;;21.17;3.28;;;13.90;99.90;;;;;;5050275;28;20064;-90
2023/11/14 12:09:31;;;;;;;22.95;3.30;;;13.90;99.90;;;;;;5035024;28;20107;-90
2023/11/14 12:11:57;;;;;;;20.83;3.70;;;13.90;99.90;;;;;;5048790;28;20048;-90
2023/11/14 12:14:23;;;;;;;25.42;3.45;;;13.90;99.90;;;;;;5045420;28;20474;-91
2023/11/14 12:16:50;;;;;;;19.38;2.60;;;13.80;99.90;;;;;;5048977;28;20036;-89
2023/11/14 12:19:15;;;;;;;20.02;2.88;;;13.80;99.90;;;;;;5054651;28;20051;-91
2023/11/14 12:21:47;;;;;;;15.05;2.65;;;13.70;99.90;;;;;;5054334;28;20049;-91
2023/11/14 12:24:13;;;;;;;19.67;3.17;;;13.70;99.90;;;;;;5053606;28;20058;-91
2023/11/14 12:26:39;;;;;;;18.23;3.13;;;13.60;99.90;;;;;;5054446;28;20041;-93
2023/11/14 12:29:10;;;;;;;20.23;3.25;;;13.50;99.90;;;;;;5055597;28;20116;-90
2023/11/14 12:31:36;;;;;;;23.42;3.78;;;13.40;99.90;;;;;;5054890;28;20500;-89
2023/11/14 12:34:04;;;;;;;14.95;2.75;;;13.20;99.90;;;;;;5054783;28;20020;-87